Time;durP1;ratioP1;P1;durP2;ratioP2;P2;SDS_P1;SDS_P2;PMS_P1;PMS_P2;Temp;Humidity;BMP_temperature;BMP_pressure;BME280_temperature;BME280_humidity;BME280_pressure;Samples;Min_cycle;Max_cycle;Signal;HPM_P1;HPM_P2
2022/08/24 00:01:57;;;;;;;71.05;50.50;;;18.60;99.90;;;;;;5054241;28;20127;-62
2022/08/24 00:04:24;;;;;;;67.55;47.40;;;18.60;99.90;;;;;;5069483;28;20044;-61
2022/08/24 00:06:50;;;;;;;66.18;46.88;;;18.60;99.90;;;;;;5052810;28;20821;-61
2022/08/24 00:09:15;;;;;;;66.68;49.15;;;18.60;99.90;;;;;;5080237;28;20040;-62
2022/08/24 00:11:41;;;;;;;72.18;49.05;;;18.60;99.90;;;;;;5081186;28;20043;-62
2022/08/24 00:14:07;;;;;;;71.45;49.75;;;18.60;99.90;;;;;;5069184;28;20067;-62
2022/08/24 00:16:34;;;;;;;64.30;47.05;;;18.50;99.90;;;;;;5078865;28;20043;-62
2022/08/24 00:19:00;;;;;;;72.13;49.25;;;18.50;99.90;;;;;;5083072;28;20114;-61
2022/08/24 00:21:25;;;;;;;72.10;49.13;;;18.50;99.90;;;;;;5077102;28;20559;-62
2022/08/24 00:23:52;;;;;;;65.70;46.58;;;18.40;99.90;;;;;;5069472;28;20029;-62
2022/08/24 00:26:17;;;;;;;66.03;47.58;;;18.40;99.90;;;;;;5079183;28;20054;-62
2022/08/24 00:28:43;;;;;;;66.30;48.22;;;18.50;99.90;;;;;;5072484;28;20037;-62
2022/08/24 00:31:09;;;;;;;63.58;45.70;;;18.50;99.90;;;;;;5072603;28;20490;-62
2022/08/24 00:33:35;;;;;;;67.28;46.92;;;18.40;99.90;;;;;;5072757;28;20042;-61
2022/08/24 00:36:01;;;;;;;67.45;48.53;;;18.40;99.90;;;;;;5080294;28;20051;-62
2022/08/24 00:38:27;;;;;;;68.13;46.10;;;18.30;99.90;;;;;;5076096;28;20040;-62
2022/08/24 00:40:53;;;;;;;69.40;47.20;;;18.30;99.90;;;;;;5071422;28;20047;-62
2022/08/24 00:43:24;;;;;;;64.90;45.28;;;18.30;99.90;;;;;;5081429;28;20044;-62
2022/08/24 00:46:20;;;;;;;66.05;46.05;;;18.30;99.90;;;;;;5077723;28;20052;-62
2022/08/24 00:48:50;;;;;;;69.43;46.53;;;18.20;99.90;;;;;;5078805;28;20127;-62
2022/08/24 00:51:21;;;;;;;71.60;48.43;;;18.20;99.90;;;;;;5072796;28;20052;-62
2022/08/24 00:53:56;;;;;;;62.15;44.45;;;18.20;99.90;;;;;;5049982;28;20039;-62
2022/08/24 00:56:26;;;;;;;62.35;44.85;;;18.10;99.90;;;;;;5070007;28;20040;-61
2022/08/24 00:59:00;;;;;;;61.95;42.90;;;18.10;99.90;;;;;;5070828;28;20032;-62
2022/08/24 01:01:27;;;;;;;67.65;47.25;;;18.00;99.90;;;;;;5064596;28;20028;-62
2022/08/24 01:03:55;;;;;;;66.72;46.03;;;18.00;99.90;;;;;;5074872;28;20036;-62
2022/08/24 01:06:21;;;;;;;60.15;44.40;;;17.90;99.90;;;;;;5070839;28;20452;-62
2022/08/24 01:08:46;;;;;;;66.15;45.53;;;17.90;99.90;;;;;;5072266;28;20032;-62
2022/08/24 01:11:21;;;;;;;64.10;44.20;;;18.00;99.90;;;;;;5069547;28;20566;-61
2022/08/24 01:13:49;;;;;;;65.50;46.15;;;17.90;99.90;;;;;;5071706;28;20048;-62
2022/08/24 01:18:48;;;;;;;67.70;45.72;;;17.90;99.90;;;;;;5086018;28;20072;-62
2022/08/24 01:19:14;;;;;;;65.18;45.55;;;17.90;99.90;;;;;;5073460;28;20044;-62
2022/08/24 01:22:10;;;;;;;65.75;44.53;;;17.90;99.90;;;;;;5058009;28;20052;-62
2022/08/24 01:24:36;;;;;;;65.55;45.60;;;17.90;99.90;;;;;;5066031;28;20471;-62
2022/08/24 01:27:02;;;;;;;69.85;47.40;;;17.80;99.90;;;;;;5073895;28;20037;-62
2022/08/24 01:29:30;;;;;;;67.68;47.15;;;17.80;99.90;;;;;;5082710;28;20032;-62
2022/08/24 01:31:56;;;;;;;65.78;45.90;;;17.80;99.90;;;;;;5053789;28;20044;-62
2022/08/24 01:34:22;;;;;;;68.25;45.72;;;17.80;99.90;;;;;;5072360;28;20404;-62
2022/08/24 01:36:50;;;;;;;65.07;44.78;;;17.80;99.90;;;;;;5074578;28;20036;-62
2022/08/24 01:39:36;;;;;;;63.17;43.83;;;17.80;99.90;;;;;;5077350;28;20056;-62
2022/08/24 01:42:03;;;;;;;65.40;45.42;;;17.80;99.90;;;;;;5074933;28;20043;-62
2022/08/24 01:44:33;;;;;;;64.80;43.83;;;17.80;99.90;;;;;;5078965;28;20040;-62
2022/08/24 01:47:00;;;;;;;59.53;41.35;;;17.70;99.90;;;;;;5080325;28;20098;-62
2022/08/24 01:49:31;;;;;;;61.22;42.65;;;17.70;99.90;;;;;;5077891;28;20377;-62
2022/08/24 01:51:57;;;;;;;65.97;44.25;;;17.60;99.90;;;;;;5083239;28;20055;-60
2022/08/24 01:54:24;;;;;;;69.65;45.75;;;17.60;99.90;;;;;;5070428;28;20063;-62
2022/08/24 01:56:50;;;;;;;63.13;44.20;;;17.60;99.90;;;;;;5074577;28;20032;-61
2022/08/24 01:59:16;;;;;;;62.00;42.42;;;17.60;99.90;;;;;;5068718;28;20150;-62
2022/08/24 02:01:50;;;;;;;60.83;42.60;;;17.60;99.90;;;;;;5051595;28;20075;-61
2022/08/24 02:04:16;;;;;;;61.05;41.13;;;17.50;99.90;;;;;;5066566;28;20067;-62
2022/08/24 02:06:43;;;;;;;63.08;42.75;;;17.50;99.90;;;;;;5051570;28;20083;-62
2022/08/24 02:09:09;;;;;;;62.20;42.28;;;17.50;99.90;;;;;;5059221;28;20039;-62
2022/08/24 02:11:36;;;;;;;62.83;43.17;;;17.50;99.90;;;;;;5077768;28;20027;-62
2022/08/24 02:14:02;;;;;;;59.30;41.00;;;17.50;99.90;;;;;;5069828;28;20033;-62
2022/08/24 02:16:28;;;;;;;60.58;42.00;;;17.50;99.90;;;;;;5069953;28;20032;-62
2022/08/24 02:18:53;;;;;;;62.50;42.88;;;17.50;99.90;;;;;;5069890;28;20055;-62
2022/08/24 02:21:19;;;;;;;60.45;41.33;;;17.40;99.90;;;;;;5071970;28;20502;-62
2022/08/24 02:23:45;;;;;;;57.10;40.45;;;17.40;99.90;;;;;;5083278;28;20043;-62
2022/08/24 02:26:11;;;;;;;58.67;40.30;;;17.40;99.90;;;;;;5083647;28;20036;-62
2022/08/24 02:28:37;;;;;;;58.67;40.22;;;17.40;99.90;;;;;;5074425;28;20067;-62
2022/08/24 02:31:05;;;;;;;64.03;41.97;;;17.30;99.90;;;;;;5075129;28;20093;-62
2022/08/24 02:33:32;;;;;;;58.70;39.83;;;17.30;99.90;;;;;;5072053;28;20036;-62
2022/08/24 02:35:58;;;;;;;59.35;39.80;;;17.30;99.90;;;;;;5061164;28;20548;-61
2022/08/24 02:38:23;;;;;;;65.68;41.40;;;17.20;99.90;;;;;;5071965;28;20043;-62
2022/08/24 02:40:49;;;;;;;58.17;40.85;;;17.20;99.90;;;;;;5069940;28;20040;-62
2022/08/24 02:43:15;;;;;;;65.43;42.20;;;17.10;99.90;;;;;;5078933;28;20109;-62
2022/08/24 02:45:44;;;;;;;62.58;41.75;;;17.10;99.90;;;;;;5071104;28;21097;-62
2022/08/24 02:48:10;;;;;;;62.35;40.58;;;17.10;99.90;;;;;;5061281;28;20068;-62
2022/08/24 02:50:41;;;;;;;61.08;40.42;;;17.10;99.90;;;;;;5075802;28;20040;-62
2022/08/24 02:53:08;;;;;;;54.78;40.35;;;17.00;99.90;;;;;;5074196;28;20037;-62
2022/08/24 02:55:34;;;;;;;60.13;38.92;;;17.00;99.90;;;;;;5063768;28;20036;-62
2022/08/24 02:58:00;;;;;;;53.13;37.72;;;17.00;99.90;;;;;;5073018;28;20036;-62
2022/08/24 03:00:26;;;;;;;46.97;34.10;;;17.00;99.90;;;;;;5067626;28;20391;-62
2022/08/24 03:02:53;;;;;;;46.85;32.63;;;17.00;99.90;;;;;;5080673;28;20044;-62
2022/08/24 03:05:19;;;;;;;36.40;28.35;;;17.00;99.90;;;;;;5077067;28;20037;-62
2022/08/24 03:07:45;;;;;;;39.35;28.27;;;17.00;99.90;;;;;;5055924;28;20036;-62
2022/08/24 03:10:11;;;;;;;41.05;29.92;;;17.00;99.90;;;;;;5070740;28;20045;-62
2022/08/24 03:12:37;;;;;;;54.85;37.05;;;17.00;99.90;;;;;;5072571;28;20036;-62
2022/08/24 03:15:05;;;;;;;58.42;39.40;;;16.90;99.90;;;;;;5076014;28;20090;-62
2022/08/24 03:17:32;;;;;;;59.42;39.63;;;16.90;99.90;;;;;;5067437;28;20058;-62
2022/08/24 03:19:59;;;;;;;58.10;39.55;;;16.90;99.90;;;;;;5066390;28;20063;-62
2022/08/24 03:22:25;;;;;;;55.83;39.13;;;16.90;99.90;;;;;;5070353;28;20055;-62
2022/08/24 03:24:51;;;;;;;63.58;42.13;;;16.90;99.90;;;;;;5070662;28;21399;-62
2022/08/24 03:27:16;;;;;;;55.83;38.00;;;16.80;99.90;;;;;;5071153;28;20043;-62
2022/08/24 03:29:42;;;;;;;54.75;38.67;;;16.80;99.90;;;;;;5079714;28;20040;-62
2022/08/24 03:32:08;;;;;;;66.88;42.90;;;16.80;99.90;;;;;;5081548;28;20048;-62
2022/08/24 03:34:33;;;;;;;58.80;39.38;;;16.80;99.90;;;;;;5083655;28;20036;-62
2022/08/24 03:36:59;;;;;;;58.80;40.38;;;16.80;99.90;;;;;;5071780;28;20376;-62
2022/08/24 03:39:24;;;;;;;68.43;43.60;;;16.80;99.90;;;;;;5085868;28;20039;-62
2022/08/24 03:41:50;;;;;;;64.68;42.90;;;16.80;99.90;;;;;;5079866;28;20124;-62
2022/08/24 03:44:15;;;;;;;69.85;42.53;;;16.80;99.90;;;;;;5074946;28;20418;-62
2022/08/24 03:46:41;;;;;;;60.75;39.97;;;16.70;99.90;;;;;;5081627;28;20052;-61
2022/08/24 03:49:08;;;;;;;56.17;38.90;;;16.70;99.90;;;;;;5077242;28;20054;-62
2022/08/24 03:51:35;;;;;;;65.40;40.78;;;16.60;99.90;;;;;;5081823;28;20046;-62
2022/08/24 03:54:03;;;;;;;69.90;43.65;;;16.60;99.90;;;;;;5075553;28;20041;-63
2022/08/24 03:56:29;;;;;;;60.17;40.03;;;16.60;99.90;;;;;;5082140;28;20035;-62
2022/08/24 03:58:56;;;;;;;61.22;39.50;;;16.60;99.90;;;;;;5075089;28;20291;-62
2022/08/24 04:01:21;;;;;;;54.15;37.03;;;16.60;99.90;;;;;;5081856;28;20040;-62
2022/08/24 04:03:48;;;;;;;51.05;34.47;;;16.60;99.90;;;;;;5069898;28;20040;-62
2022/08/24 04:06:16;;;;;;;48.67;34.38;;;16.60;99.90;;;;;;5054999;28;20048;-62
2022/08/24 04:08:42;;;;;;;47.20;32.75;;;16.60;99.90;;;;;;5076858;28;20045;-62
2022/08/24 04:11:21;;;;;;;47.08;32.38;;;16.60;99.90;;;;;;5085085;28;20036;-62
2022/08/24 04:13:48;;;;;;;48.85;33.25;;;16.60;99.90;;;;;;5074421;28;20046;-62
2022/08/24 04:16:16;;;;;;;43.15;31.77;;;16.50;99.90;;;;;;5080491;28;20455;-60
2022/08/24 04:18:42;;;;;;;48.33;33.35;;;16.50;99.90;;;;;;5083102;28;20044;-62
2022/08/24 04:21:21;;;;;;;52.28;35.88;;;16.50;99.90;;;;;;5076259;28;20988;-62
2022/08/24 04:23:47;;;;;;;50.17;34.10;;;16.50;99.90;;;;;;5074773;28;20555;-62
2022/08/24 04:26:14;;;;;;;47.78;33.17;;;16.50;99.90;;;;;;5079361;28;20534;-62
2022/08/24 04:28:40;;;;;;;50.33;33.13;;;16.50;99.90;;;;;;5071899;28;20163;-62
2022/08/24 04:31:06;;;;;;;46.72;33.63;;;16.50;99.90;;;;;;5086109;28;20127;-62
2022/08/24 04:33:33;;;;;;;48.28;32.72;;;16.50;99.90;;;;;;5071945;28;20042;-62
2022/08/24 04:35:58;;;;;;;46.22;31.48;;;16.50;99.90;;;;;;5081564;28;20082;-62
2022/08/24 04:38:25;;;;;;;42.83;31.75;;;16.40;99.90;;;;;;5078466;28;20527;-62
2022/08/24 04:40:51;;;;;;;43.33;30.88;;;16.40;99.90;;;;;;5079876;28;20033;-62
2022/08/24 04:43:17;;;;;;;46.58;32.20;;;16.30;99.90;;;;;;5081437;28;20502;-62
2022/08/24 04:45:45;;;;;;;47.75;33.70;;;16.30;99.90;;;;;;5078257;28;20523;-62
2022/08/24 04:48:11;;;;;;;48.03;32.47;;;16.30;99.90;;;;;;5051328;28;20052;-62
2022/08/24 04:50:38;;;;;;;50.83;33.70;;;16.30;99.90;;;;;;5086960;28;20046;-62
2022/08/24 04:53:05;;;;;;;50.78;33.72;;;16.30;99.90;;;;;;5074975;28;20396;-62
2022/08/24 04:55:31;;;;;;;47.92;33.55;;;16.30;99.90;;;;;;5053062;28;20384;-62
2022/08/24 04:57:57;;;;;;;46.88;32.60;;;16.30;99.90;;;;;;5080257;28;20036;-63
2022/08/24 05:00:23;;;;;;;44.70;30.35;;;16.20;99.90;;;;;;5069276;28;20048;-62
2022/08/24 05:02:49;;;;;;;43.70;30.08;;;16.30;99.90;;;;;;5077962;28;20042;-61
2022/08/24 05:05:15;;;;;;;41.33;30.05;;;16.30;99.90;;;;;;5043119;28;20059;-62
2022/08/24 05:07:41;;;;;;;40.78;29.52;;;16.20;99.90;;;;;;5076297;28;20503;-62
2022/08/24 05:10:09;;;;;;;38.35;27.58;;;16.20;99.90;;;;;;5081376;28;20040;-62
2022/08/24 05:12:35;;;;;;;39.17;28.92;;;16.20;99.90;;;;;;5074265;28;20044;-62
2022/08/24 05:15:01;;;;;;;36.50;28.67;;;16.20;99.90;;;;;;5078896;28;20089;-62
2022/08/24 05:17:26;;;;;;;37.10;27.17;;;16.20;99.90;;;;;;5059787;28;20069;-62
2022/08/24 05:19:52;;;;;;;35.50;26.25;;;16.30;99.90;;;;;;5070276;28;20068;-62
2022/08/24 05:22:20;;;;;;;36.67;27.17;;;16.30;99.90;;;;;;5083533;28;20051;-62
2022/08/24 05:24:45;;;;;;;37.47;28.05;;;16.30;99.90;;;;;;5052855;28;20041;-62
2022/08/24 05:27:11;;;;;;;40.80;27.45;;;16.40;99.90;;;;;;5072298;28;20052;-62
2022/08/24 05:29:36;;;;;;;39.58;28.27;;;16.40;99.90;;;;;;5072545;28;20044;-62
2022/08/24 05:32:02;;;;;;;35.65;25.85;;;16.50;99.90;;;;;;5069369;28;20036;-62
2022/08/24 05:34:28;;;;;;;36.70;27.00;;;16.50;99.90;;;;;;5075846;28;20055;-62
2022/08/24 05:36:53;;;;;;;43.05;29.17;;;16.60;99.90;;;;;;5072421;28;20037;-62
2022/08/24 05:39:19;;;;;;;43.38;30.33;;;16.60;99.90;;;;;;5089563;28;20123;-62
2022/08/24 05:41:46;;;;;;;43.92;29.95;;;16.70;99.90;;;;;;5079878;28;20045;-62
2022/08/24 05:44:14;;;;;;;46.72;32.08;;;16.80;99.90;;;;;;5087463;28;20035;-62
2022/08/24 05:46:41;;;;;;;43.13;31.48;;;16.80;99.90;;;;;;5075891;28;20087;-62
2022/08/24 05:49:07;;;;;;;43.55;30.05;;;16.80;99.90;;;;;;5077982;28;20040;-62
2022/08/24 05:51:33;;;;;;;39.72;28.50;;;16.90;99.90;;;;;;5088505;28;20036;-62
2022/08/24 05:53:59;;;;;;;37.53;27.10;;;17.10;99.90;;;;;;5084348;28;20051;-62
2022/08/24 05:56:26;;;;;;;36.90;28.23;;;17.10;99.90;;;;;;5079457;28;20764;-62
2022/08/24 05:58:51;;;;;;;38.67;26.88;;;17.20;99.90;;;;;;5065862;28;20046;-62
2022/08/24 06:01:20;;;;;;;37.58;27.38;;;17.30;99.90;;;;;;5082108;28;20031;-62
2022/08/24 06:03:47;;;;;;;39.58;28.48;;;17.40;99.90;;;;;;5083692;28;20040;-62
2022/08/24 06:06:14;;;;;;;38.85;28.55;;;17.40;99.90;;;;;;5074095;28;20120;-61
2022/08/24 06:08:44;;;;;;;37.05;27.23;;;17.50;99.90;;;;;;5078014;28;20044;-62
2022/08/24 06:11:10;;;;;;;36.53;27.23;;;17.70;99.90;;;;;;5065440;28;20054;-62
2022/08/24 06:13:37;;;;;;;41.95;28.73;;;17.80;99.90;;;;;;5051502;28;20067;-62
2022/08/24 06:16:05;;;;;;;45.67;31.52;;;17.90;99.90;;;;;;5081184;28;20610;-62
2022/08/24 06:18:31;;;;;;;45.95;30.73;;;18.10;99.90;;;;;;5080516;28;20112;-62
2022/08/24 06:20:57;;;;;;;46.05;32.15;;;18.20;99.90;;;;;;5070495;28;20036;-61
2022/08/24 06:23:23;;;;;;;43.53;33.05;;;18.50;99.90;;;;;;5083114;28;20114;-62
2022/08/24 06:28:33;;;;;;;47.00;33.90;;;18.90;99.90;;;;;;5069899;28;20036;-62
2022/08/24 06:31:08;;;;;;;45.92;32.53;;;19.10;99.90;;;;;;5076914;28;20036;-62
2022/08/24 06:33:34;;;;;;;43.75;31.85;;;19.30;99.90;;;;;;5082608;28;20032;-62
2022/08/24 06:36:00;;;;;;;40.08;31.38;;;19.50;99.90;;;;;;5078944;28;20510;-62
2022/08/24 06:38:26;;;;;;;42.78;33.00;;;19.90;99.90;;;;;;5068913;28;20032;-62
2022/08/24 06:40:51;;;;;;;45.58;34.40;;;20.10;99.90;;;;;;5047904;28;20036;-62
2022/08/24 06:43:17;;;;;;;44.13;35.17;;;20.40;99.90;;;;;;5080886;28;20503;-62
2022/08/24 06:45:43;;;;;;;42.88;33.63;;;20.70;99.90;;;;;;5081741;28;20108;-63
2022/08/24 06:48:09;;;;;;;41.63;34.28;;;21.00;99.90;;;;;;5083494;28;20127;-62
2022/08/24 06:50:35;;;;;;;41.63;33.83;;;21.40;99.90;;;;;;5070233;28;20049;-63
2022/08/24 06:53:01;;;;;;;40.70;34.13;;;21.80;99.90;;;;;;5074699;28;20120;-63
2022/08/24 06:55:27;;;;;;;39.47;31.73;;;22.10;99.90;;;;;;5081176;28;20051;-63
2022/08/24 06:57:53;;;;;;;36.95;31.52;;;22.30;99.90;;;;;;5090281;28;20028;-63
2022/08/24 07:00:19;;;;;;;37.90;31.02;;;22.60;99.90;;;;;;5070508;28;20173;-63
2022/08/24 07:02:45;;;;;;;39.28;34.47;;;22.60;99.90;;;;;;5082756;28;20602;-63
2022/08/24 07:05:11;;;;;;;38.15;31.30;;;22.90;99.90;;;;;;5085285;28;20046;-63
2022/08/24 07:07:37;;;;;;;35.13;29.63;;;23.10;99.90;;;;;;5057714;28;20509;-63
2022/08/24 07:10:04;;;;;;;35.85;29.08;;;23.40;99.90;;;;;;5076095;28;20040;-63
2022/08/24 07:12:29;;;;;;;35.22;30.50;;;23.50;99.90;;;;;;5078068;28;20491;-63
2022/08/24 07:14:55;;;;;;;31.50;28.10;;;23.70;99.90;;;;;;5079448;28;20064;-64
2022/08/24 07:17:21;;;;;;;31.48;25.13;;;23.80;99.90;;;;;;5093437;28;20117;-64
2022/08/24 07:19:47;;;;;;;27.60;23.88;;;24.00;99.90;;;;;;5094346;28;20471;-64
2022/08/24 07:22:13;;;;;;;29.30;24.17;;;24.30;99.90;;;;;;5094571;28;20054;-64
2022/08/24 07:24:39;;;;;;;26.98;23.63;;;24.60;99.90;;;;;;5093959;28;20067;-64
2022/08/24 07:27:05;;;;;;;23.33;17.75;;;24.80;99.90;;;;;;5093496;28;20040;-64
2022/08/24 07:29:31;;;;;;;19.20;16.02;;;25.20;99.90;;;;;;5094049;28;20332;-64
2022/08/24 07:31:57;;;;;;;17.73;14.13;;;25.50;98.00;;;;;;5087663;28;20036;-63
2022/08/24 07:34:23;;;;;;;16.27;12.95;;;25.80;96.50;;;;;;5090624;28;20468;-64
2022/08/24 07:36:49;;;;;;;20.40;18.05;;;26.10;94.60;;;;;;5092969;28;20047;-64
2022/08/24 07:39:15;;;;;;;20.50;18.30;;;26.20;94.30;;;;;;5092533;28;20437;-64
2022/08/24 07:41:43;;;;;;;20.83;18.55;;;26.40;93.50;;;;;;5092388;28;20036;-64
2022/08/24 07:44:11;;;;;;;24.67;21.25;;;26.50;93.30;;;;;;5089038;28;20047;-64
2022/08/24 07:46:39;;;;;;;22.88;20.40;;;26.70;92.70;;;;;;5088620;28;20048;-64
2022/08/24 07:49:06;;;;;;;20.20;17.92;;;26.80;92.70;;;;;;5091854;28;20084;-64
2022/08/24 07:51:32;;;;;;;18.05;15.38;;;26.90;91.90;;;;;;5087131;28;20075;-64
2022/08/24 07:54:00;;;;;;;20.13;16.45;;;27.10;91.50;;;;;;5088961;28;20119;-64
2022/08/24 07:56:27;;;;;;;13.50;12.05;;;27.30;90.60;;;;;;5093105;28;20430;-64
2022/08/24 07:58:53;;;;;;;18.13;15.23;;;27.50;89.30;;;;;;5092209;28;20047;-63
2022/08/24 08:01:20;;;;;;;20.77;14.32;;;27.60;88.00;;;;;;5088439;28;20025;-64
2022/08/24 08:03:46;;;;;;;12.88;10.70;;;27.90;86.20;;;;;;5089976;28;20039;-65
2022/08/24 08:06:12;;;;;;;12.98;11.55;;;27.90;84.10;;;;;;5087868;28;20088;-64
2022/08/24 08:08:40;;;;;;;10.75;8.55;;;28.00;83.70;;;;;;5092445;28;20032;-64
2022/08/24 08:11:06;;;;;;;12.10;9.90;;;28.00;82.90;;;;;;5084020;28;20492;-65
2022/08/24 08:13:35;;;;;;;11.93;10.60;;;28.00;82.70;;;;;;5082752;28;20043;-65
2022/08/24 08:16:02;;;;;;;10.95;9.48;;;27.90;82.30;;;;;;5093504;28;20047;-65
2022/08/24 08:18:29;;;;;;;13.70;10.98;;;28.00;81.30;;;;;;5093768;28;20372;-65
2022/08/24 08:20:54;;;;;;;11.15;10.05;;;28.00;80.30;;;;;;5087905;28;20044;-64
2022/08/24 08:26:21;;;;;;;13.30;9.05;;;28.20;77.30;;;;;;5012505;28;20046;-65
2022/08/24 08:28:47;;;;;;;14.90;12.00;;;28.50;77.50;;;;;;5074709;28;20054;-64
2022/08/24 08:31:13;;;;;;;9.43;7.65;;;28.70;76.60;;;;;;5094107;28;20042;-65
2022/08/24 08:33:39;;;;;;;10.25;7.85;;;28.70;76.60;;;;;;5091777;28;20470;-64
2022/08/24 08:36:09;;;;;;;10.25;7.55;;;28.90;75.90;;;;;;5092765;28;20051;-65
2022/08/24 08:38:35;;;;;;;;;;;28.50;73.50;;;;;;5085657;28;20132;-65
2022/08/24 08:41:47;;;;;;;15.93;8.52;;;29.00;74.90;;;;;;5086811;28;19931;-64
2022/08/24 08:44:41;;;;;;;8.30;7.03;;;29.60;72.10;;;;;;5068621;28;20094;-64
2022/08/24 08:47:47;;;;;;;7.00;5.90;;;30.10;66.50;;;;;;5072465;28;20052;-64
2022/08/24 08:50:36;;;;;;;9.68;7.57;;;30.40;63.60;;;;;;5055891;28;20044;-64
2022/08/24 08:53:39;;;;;;;10.70;6.40;;;30.50;63.60;;;;;;5075573;28;20060;-65
2022/08/24 08:56:24;;;;;;;11.10;7.70;;;30.90;64.10;;;;;;5083893;28;20044;-65
2022/08/24 08:59:20;;;;;;;10.45;9.40;;;31.30;63.00;;;;;;5071602;28;20029;-65
2022/08/24 09:01:55;;;;;;;8.88;7.72;;;31.50;60.90;;;;;;5083734;28;20084;-64
2022/08/24 09:04:49;;;;;;;10.30;6.65;;;31.80;61.90;;;;;;5089464;28;20063;-64
2022/08/24 09:07:37;;;;;;;5.68;4.20;;;32.10;59.20;;;;;;5072426;28;20041;-64
2022/08/24 09:10:37;;;;;;;11.52;7.07;;;32.50;60.20;;;;;;5074442;28;20056;-64
2022/08/24 09:13:31;;;;;;;7.70;6.05;;;32.50;57.80;;;;;;5080352;28;20055;-66
2022/08/24 09:16:19;;;;;;;7.60;6.88;;;32.60;56.90;;;;;;5092982;28;20081;-64
2022/08/24 09:19:20;;;;;;;10.00;5.55;;;32.30;58.30;;;;;;5092114;28;20385;-66
2022/08/24 09:22:10;;;;;;;8.77;5.90;;;31.60;57.80;;;;;;5079486;28;20094;-65
2022/08/24 09:24:54;;;;;;;8.77;5.57;;;31.00;59.40;;;;;;5091369;28;20406;-65
2022/08/24 09:27:31;;;;;;;7.80;5.50;;;30.80;60.20;;;;;;5092227;28;20032;-63
2022/08/24 09:30:09;;;;;;;9.13;5.43;;;30.50;59.90;;;;;;5087182;28;20204;-64
2022/08/24 09:33:04;;;;;;;9.80;6.68;;;30.20;60.50;;;;;;5074529;28;20036;-63
2022/08/24 09:35:36;;;;;;;8.50;6.10;;;30.00;60.00;;;;;;5071217;28;20045;-65
2022/08/24 09:38:27;;;;;;;9.25;6.00;;;30.00;60.60;;;;;;5089175;28;20683;-64
2022/08/24 09:41:25;;;;;;;10.70;5.70;;;29.90;61.50;;;;;;5091738;28;20044;-65
2022/08/24 09:44:06;;;;;;;6.97;5.60;;;30.00;61.60;;;;;;5078786;28;20045;-65
2022/08/24 09:46:54;;;;;;;8.50;5.68;;;29.80;61.20;;;;;;5072157;28;20067;-65
2022/08/24 09:49:58;;;;;;;7.22;5.18;;;29.70;62.00;;;;;;5070632;28;20094;-66
2022/08/24 09:52:41;;;;;;;9.02;7.00;;;29.30;62.80;;;;;;5070042;28;20057;-65
2022/08/24 09:55:21;;;;;;;7.63;5.90;;;29.40;62.90;;;;;;5072276;28;20044;-64
2022/08/24 09:58:11;;;;;;;6.80;4.75;;;29.50;61.90;;;;;;5072315;28;20046;-65
2022/08/24 10:01:03;;;;;;;6.28;5.35;;;29.40;62.20;;;;;;5073388;28;20076;-64
2022/08/24 10:03:44;;;;;;;7.90;6.35;;;29.50;61.60;;;;;;5077414;28;20071;-65
2022/08/24 10:06:23;;;;;;;7.72;4.53;;;30.00;61.30;;;;;;5068230;28;20514;-66
2022/08/24 10:09:09;;;;;;;7.97;4.38;;;31.10;59.70;;;;;;5091429;28;20048;-66
2022/08/24 10:11:45;;;;;;;6.20;4.32;;;31.90;56.70;;;;;;5087200;28;20041;-65
2022/08/24 10:14:37;;;;;;;6.32;4.40;;;32.20;55.90;;;;;;5077468;28;20476;-66
2022/08/24 10:17:15;;;;;;;7.40;4.55;;;32.20;55.60;;;;;;5072685;28;20052;-66
2022/08/24 10:20:06;;;;;;;4.32;3.15;;;31.60;55.30;;;;;;5070658;28;20472;-67
2022/08/24 10:22:48;;;;;;;6.07;3.80;;;31.00;56.80;;;;;;5073486;28;20077;-65
2022/08/24 10:25:32;;;;;;;4.30;2.42;;;30.60;56.40;;;;;;5073392;28;20090;-65
2022/08/24 10:28:20;;;;;;;4.10;3.08;;;30.40;57.70;;;;;;5086905;28;20044;-66
2022/08/24 10:31:00;;;;;;;5.25;3.50;;;30.20;58.50;;;;;;5087812;28;20484;-66
2022/08/24 10:33:33;;;;;;;4.63;2.60;;;30.10;58.70;;;;;;5064303;28;20118;-66
2022/08/24 10:36:08;;;;;;;6.07;2.70;;;29.90;59.20;;;;;;5088128;28;20434;-67
2022/08/24 10:41:59;;;;;;;7.88;3.05;;;29.70;58.50;;;;;;5090689;28;20044;-66
2022/08/24 10:44:39;;;;;;;4.82;3.17;;;29.60;59.50;;;;;;5087116;28;20042;-65
2022/08/24 10:47:22;;;;;;;3.80;2.78;;;29.50;59.50;;;;;;5072426;28;20514;-66
2022/08/24 10:50:07;;;;;;;5.03;2.45;;;29.40;59.10;;;;;;5066836;28;20384;-66
2022/08/24 10:53:03;;;;;;;4.60;2.53;;;29.50;59.40;;;;;;5092284;28;20392;-67
2022/08/24 10:55:31;;;;;;;9.25;3.20;;;29.30;60.00;;;;;;5079700;28;20028;-65
2022/08/24 10:58:21;;;;;;;6.00;3.50;;;29.40;60.10;;;;;;5093318;28;20044;-66
2022/08/24 11:00:47;;;;;;;4.10;2.70;;;29.50;59.80;;;;;;5087284;28;20128;-66
2022/08/24 11:03:22;;;;;;;3.40;2.72;;;29.60;59.80;;;;;;5072139;28;20115;-67
2022/08/24 11:05:53;;;;;;;4.57;2.35;;;29.70;59.50;;;;;;5085209;28;20767;-67
2022/08/24 11:08:24;;;;;;;2.10;1.70;;;29.70;59.50;;;;;;5091331;28;20040;-66
2022/08/24 11:11:12;;;;;;;2.10;1.85;;;29.80;59.50;;;;;;5092684;28;20089;-63
2022/08/24 11:14:00;;;;;;;3.92;1.90;;;29.90;57.80;;;;;;5080198;28;20032;-67
2022/08/24 11:16:30;;;;;;;4.10;2.25;;;29.80;58.70;;;;;;5073043;28;20036;-65
2022/08/24 11:18:59;;;;;;;2.58;2.15;;;29.90;57.60;;;;;;5074285;28;20119;-66
2022/08/24 11:21:42;;;;;;;2.40;2.20;;;29.90;57.60;;;;;;5092555;28;20032;-65
2022/08/24 11:24:41;;;;;;;4.55;2.53;;;30.00;57.40;;;;;;5081502;28;20105;-66
2022/08/24 11:27:15;;;;;;;3.20;2.30;;;30.00;58.40;;;;;;5093470;28;20067;-65
2022/08/24 11:29:50;;;;;;;3.75;1.90;;;30.10;58.00;;;;;;5094227;28;20043;-66
2022/08/24 11:32:56;;;;;;;3.50;1.77;;;30.00;58.00;;;;;;5055627;28;20093;-65
2022/08/24 11:35:31;;;;;;;4.43;2.10;;;29.90;56.60;;;;;;4991146;28;20050;-67
2022/08/24 11:38:06;;;;;;;1.88;1.60;;;29.70;57.50;;;;;;4992588;28;20042;-67
2022/08/24 11:40:38;;;;;;;4.53;1.90;;;29.70;57.60;;;;;;5042666;28;20054;-66
2022/08/24 11:43:12;;;;;;;2.80;1.60;;;29.70;57.90;;;;;;5075182;28;20066;-66
2022/08/24 11:45:54;;;;;;;2.53;2.15;;;29.90;57.50;;;;;;5080128;28;20056;-66
2022/08/24 11:48:35;;;;;;;2.50;1.92;;;29.90;57.70;;;;;;5074449;28;20044;-65
2022/08/24 11:51:09;;;;;;;3.42;1.90;;;29.90;57.80;;;;;;5093650;28;20101;-65
2022/08/24 11:53:46;;;;;;;2.67;1.92;;;30.00;58.20;;;;;;5069036;28;20042;-66
2022/08/24 11:56:24;;;;;;;2.95;2.25;;;30.20;58.30;;;;;;5091851;28;20166;-66
2022/08/24 11:59:02;;;;;;;4.18;2.30;;;30.30;57.60;;;;;;5095117;28;20039;-66
2022/08/24 12:02:04;;;;;;;6.07;2.20;;;30.40;58.00;;;;;;5071932;28;20756;-66
2022/08/24 12:04:51;;;;;;;2.30;2.10;;;30.60;57.20;;;;;;5070261;28;20193;-67
2022/08/24 12:07:40;;;;;;;2.03;1.50;;;30.60;56.60;;;;;;5073406;28;20047;-66
2022/08/24 12:10:40;;;;;;;1.63;1.20;;;30.40;55.40;;;;;;5091180;28;20040;-66
2022/08/24 12:13:30;;;;;;;2.90;1.20;;;30.50;54.90;;;;;;5094473;28;20071;-64
2022/08/24 12:16:04;;;;;;;1.42;1.33;;;30.70;54.60;;;;;;5075419;28;20385;-67
2022/08/24 12:18:42;;;;;;;1.73;1.42;;;30.70;54.40;;;;;;5076348;28;20562;-67
2022/08/24 12:21:12;;;;;;;1.52;1.30;;;30.80;54.40;;;;;;5077335;28;20044;-67
2022/08/24 12:23:46;;;;;;;1.63;1.50;;;30.90;54.00;;;;;;5054075;28;20076;-67
2022/08/24 12:26:25;;;;;;;1.88;1.20;;;31.00;53.90;;;;;;5076373;28;20036;-67
2022/08/24 12:29:08;;;;;;;2.15;1.30;;;31.30;54.70;;;;;;5078052;28;20036;-67
2022/08/24 12:31:40;;;;;;;3.40;1.63;;;31.50;53.70;;;;;;5080076;28;20044;-66
2022/08/24 12:34:31;;;;;;;1.48;1.38;;;31.60;53.30;;;;;;5072576;28;20044;-67
2022/08/24 12:37:05;;;;;;;3.78;1.30;;;31.60;53.60;;;;;;5074459;28;20033;-66
2022/08/24 12:39:39;;;;;;;2.35;1.00;;;31.60;52.60;;;;;;5064852;28;20119;-67
2022/08/24 12:42:26;;;;;;;1.20;1.10;;;31.70;51.90;;;;;;5094076;28;20040;-67
2022/08/24 12:44:57;;;;;;;2.15;1.10;;;31.80;52.10;;;;;;5092494;28;20479;-66
2022/08/24 12:47:51;;;;;;;2.60;1.50;;;32.30;51.80;;;;;;5082913;28;20496;-66
2022/08/24 12:50:45;;;;;;;1.67;1.42;;;32.60;51.00;;;;;;5084760;28;20051;-65
2022/08/24 12:53:35;;;;;;;2.38;1.60;;;32.90;50.80;;;;;;5082425;28;20056;-67
2022/08/24 12:56:22;;;;;;;1.55;1.40;;;33.10;49.40;;;;;;5074645;28;20090;-67
2022/08/24 12:59:16;;;;;;;1.45;1.25;;;33.20;49.30;;;;;;5086941;28;20039;-67
2022/08/24 13:02:01;;;;;;;1.40;1.15;;;34.20;49.20;;;;;;5086950;28;20116;-67
2022/08/24 13:04:27;;;;;;;1.83;1.40;;;34.90;48.00;;;;;;5087289;28;20040;-67
2022/08/24 13:07:00;;;;;;;1.90;1.27;;;36.40;46.70;;;;;;5092460;28;20039;-67
2022/08/24 13:09:38;;;;;;;3.20;1.48;;;38.20;43.70;;;;;;5073819;28;20044;-67